Latest Weather Observations for Innisfail Aero

IDQ60801

Issued at 9:22 am EST Tuesday 7 December 2021 (issued every 10 minutes, with the page automatically refreshed every 10 minutes)

About weather observations | Map of weather stations | Latest weather observations for QLD | Other Formats
Station Details ID: 032197 Name: INNISFAIL AERODROME Lat: -17.56 Lon: 146.01 Height: 11.84 m
Data from the previous 72 hours. | See also: Recent months at Innisfail Aero
Date/Time
EST
Temp
°C
App
Temp
°C
Dew
Point
°C
Rel
Hum
%
Delta-T
°C
Wind Press
QNH
hPa
Press
MSL
hPa
Rain since
9am
mm
Dir  Spd
km/h
Gust
km/h
Spd
kts
Gust
kts
07/09:00am 28.8 30.1 24.1 76 3.3 SE 24 35 13 19 1011.1 1011.0 0.2
07/08:30am 27.9 33.5 24.3 81 2.5 SSW 2 7 1 4 1011.1 1011.0 0.2
07/08:00am 26.9 31.7 24.2 85 1.9 S 6 11 3 6 1010.8 1010.7 0.2
07/07:30am 27.2 32.9 25.0 88 1.5 SSW 4 9 2 5 1010.6 1010.5 0.2
07/07:00am 25.4 30.6 23.5 89 1.3 SW 2 9 1 5 1010.4 1010.3 0.2
07/06:30am 23.9 28.6 23.4 97 0.3 WNW 4 7 2 4 1010.2 1010.1 0.2
07/06:00am 23.5 27.3 22.8 96 0.5 SW 7 9 4 5 1009.9 1009.8 0.2
07/05:30am 23.0 26.4 22.7 98 0.2 SE 9 13 5 7 1009.6 1009.5 0.2
07/05:00am 22.5 27.3 22.2 98 0.2 CALM 0 0 0 0 1009.5 1009.4 0.0
07/04:30am 22.2 26.5 21.9 98 0.2 NE 2 7 1 4 1008.9 1008.8 0.0
07/04:00am 22.0 26.6 21.7 98 0.2 CALM 0 0 0 0 1008.7 1008.6 0.0
07/03:30am 22.3 27.0 22.0 98 0.2 CALM 0 0 0 0 1008.7 1008.6 0.0
07/03:00am 22.1 26.5 21.3 95 0.5 CALM 0 0 0 0 1008.7 1008.6 0.0
07/02:30am 23.0 26.7 22.2 95 0.5 WSW 6 9 3 5 1008.9 1008.8 0.0
07/02:00am 23.2 26.5 22.5 96 0.5 SW 9 11 5 6 1008.8 1008.7 0.0
07/01:30am 23.1 28.2 22.6 97 0.3 CALM 0 0 0 0 1009.0 1008.9 0.0
07/01:00am 22.9 27.8 22.4 97 0.3 CALM 0 0 0 0 1009.4 1009.3 0.0
07/12:30am 22.9 27.7 22.2 96 0.5 CALM 0 0 0 0 1009.5 1009.4 0.0
07/12:00am 22.8 27.3 21.6 93 0.8 CALM 0 0 0 0 1009.7 1009.6 0.0
 
Date/Time
EST
Temp
°C
App
Temp
°C
Dew
Point
°C
Rel
Hum
%
Delta-T
°C
Wind Press
QNH
hPa
Press
MSL
hPa
Rain since
9am
mm
Dir  Spd
km/h
Gust
km/h
Spd
kts
Gust
kts
06/11:30pm 23.6 28.3 22.6 94 0.7 WNW 2 7 1 4 1010.0 1009.9 0.0
06/11:00pm 23.9 27.7 22.7 93 0.8 SW 7 9 4 5 1010.0 1009.9 0.0
06/10:30pm 23.7 26.9 22.3 92 0.9 SW 9 11 5 6 1010.1 1010.0 0.0
06/10:00pm 24.1 27.4 22.5 91 1.1 WSW 9 11 5 6 1010.0 1009.9 0.0
06/09:30pm 24.3 27.5 22.4 89 1.3 WSW 9 11 5 6 1010.0 1009.9 0.0
06/09:00pm 24.6 28.4 22.7 89 1.3 SW 7 9 4 5 1009.8 1009.7 0.0
06/08:30pm 24.9 28.4 22.8 88 1.4 SSW 9 11 5 6 1009.7 1009.6 0.0
06/08:00pm 25.6 29.1 22.9 85 1.8 SSW 9 11 5 6 1009.5 1009.4 0.0
06/07:30pm 26.2 28.8 22.7 81 2.4 S 13 17 7 9 1009.3 1009.2 0.0
06/07:00pm 26.8 29.1 22.8 79 2.7 SSE 15 20 8 11 1009.2 1009.1 0.0
06/06:30pm 27.6 29.0 22.8 75 3.3 SSE 20 26 11 14 1008.9 1008.8 0.0
06/06:00pm 28.1 29.6 23.0 74 3.5 SE 20 28 11 15 1008.5 1008.4 0.0
06/05:30pm 28.8 29.0 22.8 70 4.1 SE 26 33 14 18 1008.1 1008.0 0.0
06/05:00pm 29.2 29.3 23.2 70 4.1 SSE 28 35 15 19 1007.9 1007.8 0.0
06/04:30pm 30.0 30.1 23.2 67 4.7 SE 28 35 15 19 1007.6 1007.5 0.0
06/04:00pm 29.3 29.2 22.3 66 4.8 SE 26 35 14 19 1007.4 1007.3 0.0
06/03:30pm 29.7 31.5 23.6 69 4.2 S 20 28 11 15 1007.4 1007.3 0.0
06/03:00pm 29.8 31.5 24.7 74 3.6 S 24 32 13 17 1007.8 1007.7 0.0
06/02:30pm 30.1 30.1 23.0 65 4.9 SSE 28 43 15 23 1008.0 1007.9 0.0
06/02:00pm 31.1 30.7 23.7 64 5.1 SSE 32 43 17 23 1008.1 1008.0 0.0
06/01:30pm 30.7 32.0 22.6 62 5.5 SE 20 28 11 15 1008.1 1008.0 0.0
06/01:00pm 30.4 31.4 22.8 64 5.2 SE 22 30 12 16 1008.4 1008.3 0.0
06/12:30pm 31.0 30.9 22.3 60 5.9 SE 26 35 14 19 1008.7 1008.6 0.0
06/12:00pm 31.4 32.0 23.5 63 5.5 SE 26 35 14 19 1009.0 1008.9 0.0
06/11:30am 30.8 31.4 22.1 59 5.9 SE 22 28 12 15 1009.1 1009.0 0.0
06/11:00am 31.7 33.4 24.0 63 5.4 SSE 22 32 12 17 1009.3 1009.2 0.0
06/10:30am 31.1 31.6 21.9 58 6.2 SE 22 30 12 16 1009.6 1009.5 0.0
06/10:00am 30.7 33.8 22.8 62 5.4 SSE 11 26 6 14 1009.8 1009.7 0.0
06/09:30am 29.4 32.7 23.8 72 3.9 SSE 13 17 7 9 1010.2 1010.1 0.0
06/09:00am 29.7 32.8 23.6 69 4.2 SSE 13 20 7 11 1010.3 1010.2 0.0
06/08:30am 28.5 31.5 22.7 71 3.9 S 11 17 6 9 1010.0 1009.9 0.0
06/08:00am 27.3 31.4 22.9 77 3.0 W 6 9 3 5 1010.0 1009.9 0.0
06/07:30am 24.6 30.0 23.2 92 0.9 CALM 0 0 0 0 1010.1 1010.0 0.0
06/07:00am 23.3 28.4 22.6 96 0.5 CALM 0 0 0 0 1009.8 1009.7 0.0
06/06:30am 22.0 26.6 21.7 98 0.2 CALM 0 0 0 0 1009.4 1009.3 0.0
06/06:02am 20.3 24.0 20.0 98 0.2 CALM 0 0 0 0 1008.9 1008.8 0.0
06/06:00am 20.2 23.9 19.9 98 0.2 CALM 0 0 0 0 1008.9 1008.8 0.0
06/05:43am 19.4 22.6 18.9 97 0.3 CALM 0 0 0 0 1008.6 1008.5 0.0
06/05:30am 20.4 24.2 20.1 98 0.2 CALM 0 0 0 0 1008.4 1008.3 0.0
06/05:00am 19.9 23.3 19.4 97 0.3 CALM 0 0 0 0 1008.2 1008.1 0.0
06/04:33am 20.7 24.6 20.4 98 0.2 CALM 0 0 0 0 1008.1 1008.0 0.0
06/04:30am 20.8 24.8 20.5 98 0.2 CALM 0 0 0 0 1008.0 1007.9 0.0
06/04:07am 19.9 23.3 19.4 97 0.3 CALM 0 0 0 0 1007.9 1007.8 0.0
06/04:00am 20.3 23.9 19.8 97 0.3 CALM 0 0 0 0 1007.9 1007.8 0.0
06/03:30am 21.0 25.0 20.5 97 0.3 CALM 0 0 0 0 1007.8 1007.7 0.0
06/03:00am 20.8 24.6 20.1 96 0.4 CALM 0 0 0 0 1008.0 1007.9 0.0
06/02:30am 21.0 24.9 20.3 96 0.5 CALM 0 0 0 0 1008.0 1007.9 0.0
06/02:00am 21.5 25.7 21.0 97 0.3 CALM 0 0 0 0 1008.0 1007.9 0.0
06/01:30am 21.3 25.3 20.5 95 0.5 CALM 0 0 0 0 1008.6 1008.5 0.0
06/01:00am 22.0 26.4 21.3 96 0.5 CALM 0 0 0 0 1008.7 1008.6 0.0
06/12:30am 22.0 26.2 21.0 94 0.7 CALM 0 0 0 0 1009.1 1009.0 0.0
06/12:00am 22.4 26.7 21.2 93 0.8 CALM 0 0 0 0 1009.4 1009.3 0.0
 
Date/Time
EST
Temp
°C
App
Temp
°C
Dew
Point
°C
Rel
Hum
%
Delta-T
°C
Wind Press
QNH
hPa
Press
MSL
hPa
Rain since
9am
mm
Dir  Spd
km/h
Gust
km/h
Spd
kts
Gust
kts
05/11:30pm 23.0 26.1 21.5 91 1.0 WSW 7 11 4 6 1009.4 1009.3 0.0
05/11:00pm 23.2 25.6 21.6 91 1.1 SW 11 13 6 7 1009.4 1009.3 0.0
05/10:30pm 22.7 25.5 21.5 93 0.8 SW 9 11 5 6 1009.5 1009.4 0.0
05/10:00pm 23.0 25.4 21.6 92 0.9 SW 11 13 6 7 1009.2 1009.1 0.0
05/09:30pm 23.1 25.9 21.5 91 1.1 SW 9 11 5 6 1008.9 1008.8 0.0
05/09:00pm 23.4 26.8 21.7 90 1.1 WSW 6 7 3 4 1008.6 1008.5 0.0
05/08:30pm 23.8 27.2 21.7 88 1.4 SW 6 7 3 4 1008.6 1008.5 0.0
05/08:00pm 24.6 28.0 21.7 84 1.9 SSW 6 7 3 4 1008.3 1008.2 0.0
05/07:30pm 25.3 28.9 22.0 82 2.2 SSE 6 7 3 4 1008.0 1007.9 0.0
05/07:00pm 25.8 28.7 21.7 78 2.7 SE 9 13 5 7 1008.0 1007.9 0.0
05/06:30pm 27.0 28.5 21.3 71 3.8 SE 15 20 8 11 1007.9 1007.8 0.0
05/06:00pm 28.4 29.2 21.4 66 4.7 SSE 19 22 10 12 1007.7 1007.6 0.0
05/05:30pm 29.1 29.0 20.8 61 5.5 SSE 22 28 12 15 1007.4 1007.3 0.0
05/05:00pm 29.8 30.1 21.5 61 5.6 SE 22 28 12 15 1007.2 1007.1 0.0
05/04:30pm 30.3 29.8 20.8 56 6.3 SSE 24 32 13 17 1007.3 1007.2 0.0
05/04:00pm 31.3 30.6 20.3 52 7.3 SSE 24 30 13 16 1007.3 1007.2 0.0
05/03:30pm 31.1 29.5 19.1 48 7.8 SE 26 37 14 20 1007.3 1007.2 0.0
05/03:00pm 31.4 30.0 19.7 49 7.7 SE 26 35 14 19 1007.7 1007.6 0.0
05/02:30pm 31.8 29.5 17.7 43 9.0 SSE 26 35 14 19 1007.9 1007.8 0.0
05/02:00pm 31.5 30.2 19.8 49 7.7 SSE 26 37 14 20 1008.2 1008.1 0.0
05/01:30pm 31.6 29.7 18.6 46 8.4 SSE 26 37 14 20 1008.5 1008.4 0.0
05/01:00pm 31.2 29.5 18.2 46 8.4 SSE 24 33 13 18 1008.7 1008.6 0.0
05/12:30pm 31.3 29.9 19.6 49 7.7 SSE 26 35 14 19 1008.9 1008.8 0.0
05/12:00pm 32.1 31.1 19.7 48 8.2 SE 24 35 13 19 1009.0 1008.9 0.0
05/11:30am 31.6 31.6 20.2 50 7.6 SE 20 37 11 20 1009.1 1009.0 0.0
05/11:00am 31.5 32.0 21.9 56 6.5 SSE 22 35 12 19 1009.3 1009.2 0.0
05/10:30am 30.6 30.8 21.4 58 6.2 SSE 22 32 12 17 1009.6 1009.5 0.0
05/10:00am 30.6 30.7 21.9 59 5.9 SE 24 32 13 17 1009.7 1009.6 0.0
05/09:30am 31.0 33.0 22.9 62 5.6 SSE 17 26 9 14 1009.8 1009.7 0.0
05/09:00am 28.8 30.4 22.1 67 4.5 S 17 24 9 13 1009.6 1009.5 0.0
05/08:30am 28.7 30.7 22.2 68 4.4 S 15 22 8 12 1009.6 1009.5 0.0
05/08:00am 28.4 31.9 22.9 72 3.8 S 9 17 5 9 1009.5 1009.4 0.0
05/07:30am 27.0 32.2 22.8 78 2.8 CALM 0 0 0 0 1009.5 1009.4 0.0
05/07:00am 24.4 29.3 22.3 88 1.4 CALM 0 0 0 0 1009.4 1009.3 0.0
05/06:30am 21.9 26.2 21.1 95 0.5 CALM 0 0 0 0 1009.3 1009.2 0.0
05/06:00am 21.4 24.2 20.4 94 0.6 N 6 7 3 4 1008.8 1008.7 0.0
05/05:30am 21.8 24.6 20.8 94 0.6 SW 7 9 4 5 1008.4 1008.3 0.0
05/05:00am 21.7 23.7 20.7 94 0.6 W 11 13 6 7 1008.2 1008.1 0.0
05/04:30am 21.0 23.5 20.3 96 0.5 SSW 7 9 4 5 1007.9 1007.8 0.0
05/04:00am 20.9 24.8 20.4 97 0.3 CALM 0 0 0 0 1007.8 1007.7 0.0
05/03:30am 21.0 24.9 20.3 96 0.5 CALM 0 0 0 0 1007.9 1007.8 0.0
05/03:00am 21.5 25.6 20.7 95 0.5 CALM 0 0 0 0 1008.0 1007.9 0.0
05/02:30am 22.1 25.2 21.1 94 0.7 WSW 6 7 3 4 1008.2 1008.1 0.0
05/02:00am 22.1 26.5 21.3 95 0.5 CALM 0 0 0 0 1008.2 1008.1 0.0
05/01:30am 21.5 25.6 20.7 95 0.5 CALM 0 0 0 0 1008.4 1008.3 0.0
05/01:00am 21.8 26.1 21.1 96 0.5 CALM 0 0 0 0 1008.8 1008.7 0.0
05/12:30am 21.9 26.2 21.1 95 0.5 CALM 0 0 0 0 1009.0 1008.9 0.0
05/12:00am 22.0 26.1 20.8 93 0.8 CALM 0 0 0 0 1009.4 1009.3 0.0
 
Date/Time
EST
Temp
°C
App
Temp
°C
Dew
Point
°C
Rel
Hum
%
Delta-T
°C
Wind Press
QNH
hPa
Press
MSL
hPa
Rain since
9am
mm
Dir  Spd
km/h
Gust
km/h
Spd
kts
Gust
kts
04/11:30pm 22.7 27.3 21.7 94 0.7 CALM 0 0 0 0 1009.5 1009.4 0.0
04/11:00pm 22.9 27.7 22.1 95 0.5 CALM 0 0 0 0 1009.9 1009.8 0.0
04/10:30pm 23.1 27.9 22.1 94 0.7 CALM 0 0 0 0 1010.0 1009.9 0.0
04/10:00pm 23.7 27.7 22.0 90 1.1 W 4 7 2 4 1009.9 1009.8 0.0
04/09:30pm 24.5 27.7 22.4 88 1.4 WSW 9 11 5 6 1009.7 1009.6 0.0
04/09:00pm 24.7 27.9 22.4 87 1.5 WSW 9 11 5 6 1009.5 1009.4 0.0
04/08:39pm 24.8 28.1 22.5 87 1.5 SW 9 11 5 6 1009.5 1009.4 0.0
04/08:30pm 24.6 28.2 22.3 87 1.5 SW 7 9 4 5 1009.3 1009.2 0.0
04/08:20pm 24.9 28.1 22.4 86 1.7 SW 9 11 5 6 1009.2 1009.1 0.0
04/08:00pm 25.4 29.1 22.5 84 2.0 SW 7 9 4 5 1009.1 1009.0 0.0
04/07:30pm 26.1 29.7 22.4 80 2.5 WSW 7 9 4 5 1008.9 1008.8 0.0
04/07:00pm 26.6 30.1 22.2 77 3.0 SSW 7 11 4 6 1009.0 1008.9 0.0
04/06:30pm 27.6 29.5 22.1 72 3.7 SSE 15 19 8 10 1008.6 1008.5 0.0
04/06:00pm 28.8 29.9 22.3 68 4.4 SE 20 28 11 15 1008.6 1008.5 0.0
04/05:30pm 29.5 30.2 22.2 65 4.9 SE 22 28 12 15 1008.3 1008.2 0.0
04/05:00pm 29.8 29.7 22.3 64 5.1 SSE 26 32 14 17 1008.1 1008.0 0.0
04/04:30pm 30.6 31.0 22.5 62 5.5 SE 24 32 13 17 1008.0 1007.9 0.0
04/04:00pm 30.8 31.1 22.9 62 5.4 SE 26 35 14 19 1007.9 1007.8 0.0
04/03:30pm 31.3 30.5 22.3 58 6.1 SE 30 35 16 19 1007.9 1007.8 0.0
04/03:00pm 31.2 31.0 22.8 61 5.8 SE 28 37 15 20 1008.3 1008.2 0.0
04/02:30pm 31.6 30.1 20.2 50 7.6 SSE 28 39 15 21 1008.6 1008.5 0.0
04/02:00pm 31.9 31.0 21.4 53 7.1 SE 28 35 15 19 1009.0 1008.9 0.0
04/01:30pm 32.1 31.7 21.0 52 7.4 SE 24 35 13 19 1009.4 1009.3 0.0
04/01:00pm 32.6 33.1 22.7 56 6.8 SE 24 33 13 18 1009.8 1009.7 0.0
04/12:30pm 32.0 32.0 20.9 52 7.4 SE 22 32 12 17 1010.1 1010.0 0.0
04/12:00pm 32.9 34.8 23.8 58 6.3 SSE 20 30 11 16 1010.3 1010.2 0.0
04/11:30am 31.8 31.3 22.2 56 6.5 SSE 28 35 15 19 1010.8 1010.7 0.0
04/11:00am 30.9 30.8 22.2 59 5.9 SSE 26 33 14 18 1011.1 1011.0 0.0
04/10:30am 30.7 31.6 22.6 62 5.5 SE 22 32 12 17 1011.2 1011.1 0.0
04/10:00am 31.0 31.7 22.9 62 5.6 SE 24 30 13 16 1011.3 1011.2 0.0
04/09:30am 30.1 30.7 23.5 67 4.6 SSE 26 35 14 19 1011.3 1011.2 0.0

Other formats

Comma delimited format used in spreadsheet applications
http://www.bom.gov.au/fwo/IDQ60801/IDQ60801.94280.axf

JavaScript Object Notation format (JSON) in row-major order
http://www.bom.gov.au/fwo/IDQ60801/IDQ60801.94280.json

Data quality

Most of these data are generated automatically and are frequently updated. Quality checks on data are not normally performed. It is possible for incorrect values to appear. Refer to information at About Latest Weather Observations and please check the disclaimer before using these data.